Wheatland, Oklahoma
Current Conditions -  °F | °C
As of 9:52 AM on Thursday 27 Nov 2014 (Local Time) from KOKC Reporting Station
Few Clouds Few Clouds  
Wind Chill: 36°   Ceiling: Unl
Heat Index: 39°   Visibility: 10mi
Dew Point: 22°   Wind: 5mph
Humidity: 50%   Direction: 150°SSE
Pressure: 30.54"   Gusts: NA
Location:  35.4°N, 97.65°W
Report Text: KOKC 271552Z 15004KT 10SM FEW250 04/M06 A3054 RMK AO2 SLP348 T00391056
Loading
Personal Weather Stations






























Interactive Weather Map New forecast layout! Learn more

10-Day Weather Forecast

Advertisements
Track Severe Weather on mobile